createdAt,value
2023-01-11T00:00:04.565Z,0.00
2023-01-11T00:05:04.521Z,0.00
2023-01-11T00:10:04.303Z,0.00
2023-01-11T00:15:04.277Z,0.00
2023-01-11T00:20:04.236Z,0.00
2023-01-11T00:25:04.175Z,0.00
2023-01-11T00:30:04.066Z,0.00
2023-01-11T00:35:04.062Z,0.00
2023-01-11T00:40:04.196Z,0.00
2023-01-11T00:45:04.124Z,0.00
2023-01-11T00:50:03.973Z,0.00
2023-01-11T00:55:03.829Z,0.00
2023-01-11T01:00:03.854Z,0.00
2023-01-11T01:05:03.797Z,0.00
2023-01-11T01:10:03.621Z,0.00
2023-01-11T01:15:03.620Z,0.00
2023-01-11T01:20:03.558Z,0.00
2023-01-11T01:25:03.471Z,0.00
2023-01-11T01:30:03.467Z,0.00
2023-01-11T01:35:04.545Z,0.00
2023-01-11T01:40:03.459Z,0.00
2023-01-11T01:45:03.446Z,0.00
2023-01-11T01:50:03.335Z,0.00
2023-01-11T01:55:03.176Z,0.00
2023-01-11T02:00:03.132Z,0.00
2023-01-11T02:05:03.107Z,0.00
2023-01-11T02:10:03.002Z,0.00
2023-01-11T02:15:02.984Z,0.00
2023-01-11T02:20:02.979Z,0.00
2023-01-11T02:25:06.301Z,0.00
2023-01-11T02:30:03.836Z,0.00
2023-01-11T02:35:02.738Z,0.00
2023-01-11T02:40:02.659Z,0.00
2023-01-11T02:45:02.650Z,0.00
2023-01-11T02:50:02.588Z,0.00
2023-01-11T02:55:02.577Z,0.00
2023-01-11T03:00:02.465Z,0.00
2023-01-11T03:05:02.429Z,0.00
2023-01-11T03:10:05.888Z,0.00
2023-01-11T03:15:02.294Z,0.00
2023-01-11T03:20:02.240Z,0.00
2023-01-11T03:25:02.383Z,0.00
2023-01-11T03:30:02.146Z,0.00
2023-01-11T03:35:02.080Z,0.00
2023-01-11T03:40:02.029Z,0.00
2023-01-11T03:45:01.985Z,0.00
2023-01-11T03:50:01.917Z,0.00
2023-01-11T03:55:01.961Z,0.00
2023-01-11T04:00:01.823Z,0.00
2023-01-11T04:05:01.761Z,0.00
2023-01-11T04:10:01.705Z,0.00
2023-01-11T04:15:01.628Z,0.00
2023-01-11T04:20:01.604Z,0.00
2023-01-11T04:25:01.571Z,0.00
2023-01-11T04:30:01.475Z,0.00
2023-01-11T04:35:01.559Z,0.00
2023-01-11T04:40:01.505Z,0.00
2023-01-11T04:45:01.467Z,0.00
2023-01-11T04:50:01.253Z,0.00
2023-01-11T04:55:01.241Z,0.00
2023-01-11T05:00:01.255Z,0.00
2023-01-11T05:05:01.069Z,0.00
2023-01-11T05:10:01.033Z,0.00
2023-01-11T05:15:00.966Z,0.00
2023-01-11T05:20:00.916Z,0.00
2023-01-11T05:25:00.981Z,0.00
2023-01-11T05:30:00.900Z,0.00
2023-01-11T05:35:00.777Z,0.00
2023-01-11T05:40:00.784Z,0.00
2023-01-11T05:45:00.648Z,0.00
2023-01-11T05:50:00.565Z,0.00
2023-01-11T05:55:00.511Z,0.00
2023-01-11T06:00:00.628Z,0.00
2023-01-11T06:05:00.395Z,0.00
2023-01-11T06:10:00.374Z,0.00
2023-01-11T06:15:00.329Z,0.00
2023-01-11T06:20:00.240Z,0.00
2023-01-11T06:25:00.162Z,0.00
2023-01-11T06:30:00.279Z,0.00
2023-01-11T06:35:00.172Z,0.00
2023-01-11T06:40:00.197Z,0.00
2023-01-11T06:44:59.958Z,0.00
2023-01-11T06:50:00.098Z,0.00
2023-01-11T06:54:59.993Z,0.00
2023-01-11T06:59:59.923Z,0.00
2023-01-11T07:05:00.883Z,0.00
2023-01-11T07:10:00.825Z,4.00
2023-01-11T07:15:00.781Z,8.00
2023-01-11T07:19:59.743Z,12.00
2023-01-11T07:24:59.605Z,12.00
2023-01-11T07:29:59.546Z,20.00
2023-01-11T07:34:59.489Z,60.00
2023-01-11T07:39:59.429Z,40.00
2023-01-11T07:44:59.289Z,56.00
2023-01-11T07:49:59.252Z,152.00
2023-01-11T07:54:59.209Z,160.00
2023-01-11T07:59:59.137Z,236.00
2023-01-11T08:04:59.068Z,276.00
2023-01-11T08:09:59.031Z,372.00
2023-01-11T08:14:58.990Z,604.00
2023-01-11T08:19:58.949Z,536.00
2023-01-11T08:24:58.881Z,464.00
2023-01-11T08:29:58.820Z,696.00
2023-01-11T08:34:58.700Z,1044.00
2023-01-11T08:39:58.835Z,888.00
2023-01-11T08:44:58.649Z,1236.00
2023-01-11T08:49:58.552Z,880.00
2023-01-11T08:54:58.513Z,504.00
2023-01-11T08:59:58.504Z,1252.00
2023-01-11T09:04:58.504Z,1100.00
2023-01-11T09:09:58.363Z,1356.00
2023-01-11T09:14:58.402Z,2016.00
2023-01-11T09:19:58.300Z,1452.00
2023-01-11T09:24:58.199Z,600.00
2023-01-11T09:29:58.159Z,616.00
2023-01-11T09:34:58.051Z,836.00
2023-01-11T09:39:58.041Z,1092.00
2023-01-11T09:44:58.076Z,1812.00
2023-01-11T09:49:57.937Z,2504.00
2023-01-11T09:54:57.922Z,1444.00
2023-01-11T09:59:57.794Z,2356.00
2023-01-11T10:04:57.824Z,2040.00
2023-01-11T10:18:29.107Z,1568.00
2023-01-11T10:19:58.615Z,1692.00
2023-01-11T10:24:57.611Z,2840.00
2023-01-11T10:29:57.608Z,1860.00
2023-01-11T10:34:57.490Z,4548.00
2023-01-11T10:39:57.420Z,5008.00
2023-01-11T10:44:57.300Z,4928.00
2023-01-11T10:49:57.271Z,5436.00
2023-01-11T10:54:57.210Z,3920.00
2023-01-11T10:59:57.201Z,10376.00
2023-01-11T11:04:57.164Z,9332.00
2023-01-11T11:09:57.105Z,12172.00
2023-01-11T11:14:56.971Z,10084.00
2023-01-11T11:19:57.064Z,7924.00
2023-01-11T11:24:56.868Z,8392.00
2023-01-11T11:29:56.785Z,5548.00
2023-01-11T11:34:57.822Z,6616.00
2023-01-11T11:39:57.774Z,6480.00
2023-01-11T11:44:56.668Z,6084.00
2023-01-11T11:49:56.593Z,10996.00
2023-01-11T11:54:56.559Z,15456.00
2023-01-11T11:59:56.498Z,14540.00
2023-01-11T12:04:56.459Z,7064.00
2023-01-11T12:09:56.332Z,3932.00
2023-01-11T12:14:56.419Z,3660.00
2023-01-11T12:19:56.340Z,3424.00
2023-01-11T12:24:56.238Z,4144.00
2023-01-11T12:29:56.160Z,3484.00
2023-01-11T12:34:56.082Z,8648.00
2023-01-11T12:39:56.061Z,9264.00
2023-01-11T12:44:55.952Z,8736.00
2023-01-11T12:49:55.988Z,6972.00
2023-01-11T12:54:55.911Z,5196.00
2023-01-11T12:59:55.895Z,4452.00
2023-01-11T13:04:55.780Z,4920.00
2023-01-11T13:09:55.712Z,3840.00
2023-01-11T13:14:55.616Z,4760.00
2023-01-11T13:19:55.604Z,4760.00
2023-01-11T13:24:55.611Z,4812.00
2023-01-11T13:29:55.475Z,6244.00
2023-01-11T13:34:55.454Z,6464.00
2023-01-11T13:39:55.365Z,6956.00
2023-01-11T13:44:55.348Z,6536.00
2023-01-11T13:49:55.238Z,7060.00
2023-01-11T13:54:55.201Z,5688.00
2023-01-11T13:59:55.165Z,5268.00
2023-01-11T14:04:55.182Z,5204.00
2023-01-11T14:09:55.117Z,4276.00
2023-01-11T14:14:54.965Z,3300.00
2023-01-11T14:19:54.917Z,3128.00
2023-01-11T14:24:54.846Z,3920.00
2023-01-11T14:29:54.792Z,2912.00
2023-01-11T14:34:54.803Z,2628.00
2023-01-11T14:39:54.687Z,2500.00
2023-01-11T14:44:54.637Z,2924.00
2023-01-11T14:49:54.614Z,4148.00
2023-01-11T14:54:54.563Z,3600.00
2023-01-11T14:59:54.440Z,2752.00
2023-01-11T15:04:54.477Z,2444.00
2023-01-11T15:09:54.408Z,1956.00
2023-01-11T15:14:54.258Z,1360.00
2023-01-11T15:19:54.290Z,1180.00
2023-01-11T15:24:54.231Z,856.00
2023-01-11T15:29:54.115Z,720.00
2023-01-11T15:34:54.203Z,600.00
2023-01-11T15:39:54.047Z,440.00
2023-01-11T15:44:53.963Z,272.00
2023-01-11T15:49:53.925Z,188.00
2023-01-11T15:54:53.857Z,120.00
2023-01-11T15:59:53.899Z,64.00
2023-01-11T16:04:57.191Z,28.00
2023-01-11T16:09:53.694Z,12.00
2023-01-11T16:14:53.641Z,4.00
2023-01-11T16:19:53.563Z,0.00
2023-01-11T16:24:53.537Z,0.00
2023-01-11T16:29:53.533Z,0.00
2023-01-11T16:34:55.497Z,0.00
2023-01-11T16:39:53.363Z,0.00
2023-01-11T16:44:54.392Z,0.00
2023-01-11T16:49:53.255Z,0.00
2023-01-11T16:54:53.206Z,0.00
2023-01-11T16:59:53.129Z,0.00
2023-01-11T17:04:53.096Z,0.00
2023-01-11T17:09:56.433Z,0.00
2023-01-11T17:14:53.081Z,0.00
2023-01-11T17:19:53.043Z,0.00
2023-01-11T17:24:52.995Z,0.00
2023-01-11T17:29:52.821Z,0.00
2023-01-11T17:34:52.795Z,0.00
2023-01-11T17:39:52.737Z,0.00
2023-01-11T17:44:52.731Z,0.00
2023-01-11T17:49:52.722Z,0.00
2023-01-11T17:54:52.561Z,0.00
2023-01-11T17:59:52.557Z,0.00
2023-01-11T18:04:52.450Z,0.00
2023-01-11T18:09:52.396Z,0.00
2023-01-11T18:14:52.301Z,0.00
2023-01-11T18:19:53.328Z,0.00
2023-01-11T18:24:52.217Z,0.00
2023-01-11T18:29:52.277Z,0.00
2023-01-11T18:34:52.140Z,0.00
2023-01-11T18:39:52.050Z,0.00
2023-01-11T18:44:52.113Z,0.00
2023-01-11T18:49:51.929Z,0.00
2023-01-11T18:54:55.395Z,0.00
2023-01-11T18:59:52.053Z,0.00
2023-01-11T19:04:51.771Z,0.00
2023-01-11T19:09:51.700Z,0.00
2023-01-11T19:14:51.781Z,0.00
2023-01-11T19:19:51.634Z,0.00
2023-01-11T19:24:51.572Z,0.00
2023-01-11T19:29:51.565Z,0.00
2023-01-11T19:34:51.451Z,0.00
2023-01-11T19:39:51.391Z,0.00
2023-01-11T19:44:51.325Z,0.00
2023-01-11T19:49:51.451Z,0.00
2023-01-11T19:54:51.372Z,0.00
2023-01-11T19:59:52.378Z,0.00
2023-01-11T20:04:51.436Z,0.00
2023-01-11T20:09:51.077Z,0.00
2023-01-11T20:14:51.096Z,0.00
2023-01-11T20:19:51.003Z,0.00
2023-01-11T20:24:51.118Z,0.00
2023-01-11T20:29:50.932Z,0.00
2023-01-11T20:34:50.871Z,0.00
2023-01-11T20:39:50.746Z,0.00
2023-01-11T20:44:50.659Z,0.00
2023-01-11T20:49:50.643Z,0.00
2023-01-11T20:54:50.632Z,0.00
2023-01-11T20:59:50.513Z,0.00
2023-01-11T21:04:50.619Z,0.00
2023-01-11T21:09:50.394Z,0.00
2023-01-11T21:14:50.495Z,0.00
2023-01-11T21:19:50.286Z,0.00
2023-01-11T21:24:50.234Z,0.00
2023-01-11T21:29:50.180Z,0.00
2023-01-11T21:34:50.150Z,0.00
2023-01-11T21:39:50.064Z,0.00
2023-01-11T21:44:51.163Z,0.00
2023-01-11T21:49:50.173Z,0.00
2023-01-11T21:54:49.922Z,0.00
2023-01-11T21:59:50.074Z,0.00
2023-01-11T22:04:49.806Z,0.00
2023-01-11T22:10:03.727Z,0.00
2023-01-11T22:14:50.705Z,0.00
2023-01-11T22:19:49.629Z,0.00
2023-01-11T22:24:49.568Z,0.00
2023-01-11T22:29:49.668Z,0.00
2023-01-11T22:34:54.043Z,0.00
2023-01-11T22:39:49.396Z,0.00
2023-01-11T22:44:49.513Z,0.00
2023-01-11T22:49:49.501Z,0.00
2023-01-11T22:54:49.274Z,0.00
2023-01-11T22:59:49.198Z,0.00
2023-01-11T23:04:49.163Z,0.00
2023-01-11T23:09:49.074Z,0.00
2023-01-11T23:14:49.050Z,0.00
2023-01-11T23:19:49.051Z,0.00
2023-01-11T23:24:49.041Z,0.00
2023-01-11T23:29:48.842Z,0.00
2023-01-11T23:34:48.917Z,0.00
2023-01-11T23:39:48.776Z,0.00
2023-01-11T23:44:48.683Z,0.00
2023-01-11T23:49:48.653Z,0.00
2023-01-11T23:54:48.588Z,0.00
2023-01-11T23:59:48.528Z,0.00
